createdAt,value
2022-09-20T00:01:54.137Z,1.50
2022-09-20T00:04:20.476Z,1.40
2022-09-20T00:06:46.831Z,1.03
2022-09-20T00:09:13.183Z,1.28
2022-09-20T00:11:39.498Z,1.15
2022-09-20T00:14:05.831Z,1.18
2022-09-20T00:16:32.343Z,1.23
2022-09-20T00:18:58.730Z,1.28
2022-09-20T00:21:25.042Z,1.15
2022-09-20T00:23:51.373Z,1.39
2022-09-20T00:26:17.733Z,1.23
2022-09-20T00:28:44.069Z,1.26
2022-09-20T00:31:10.524Z,1.12
2022-09-20T00:33:36.857Z,1.09
2022-09-20T00:36:03.198Z,1.15
2022-09-20T00:38:29.523Z,1.75
2022-09-20T00:40:55.830Z,1.24
2022-09-20T00:43:22.179Z,1.11
2022-09-20T00:45:48.551Z,1.24
2022-09-20T00:48:14.925Z,1.40
2022-09-20T00:50:41.257Z,1.50
2022-09-20T00:53:07.604Z,1.20
2022-09-20T00:55:34.004Z,1.22
2022-09-20T00:58:00.334Z,1.06
2022-09-20T01:00:26.672Z,0.88
2022-09-20T01:02:52.982Z,1.12
2022-09-20T01:05:19.333Z,1.11
2022-09-20T01:07:45.689Z,0.99
2022-09-20T01:10:12.012Z,1.55
2022-09-20T01:12:38.392Z,1.09
2022-09-20T01:15:04.754Z,1.08
2022-09-20T01:17:31.122Z,0.96
2022-09-20T01:19:57.489Z,1.19
2022-09-20T01:22:23.814Z,1.03
2022-09-20T01:24:50.178Z,1.14
2022-09-20T01:27:16.506Z,1.02
2022-09-20T01:29:42.880Z,0.87
2022-09-20T01:32:09.272Z,0.89
2022-09-20T01:34:35.631Z,0.96
2022-09-20T01:37:01.985Z,0.88
2022-09-20T01:39:28.309Z,1.01
2022-09-20T01:41:54.666Z,1.09
2022-09-20T01:44:20.996Z,1.07
2022-09-20T01:46:47.325Z,1.00
2022-09-20T01:49:13.680Z,0.99
2022-09-20T01:51:40.019Z,1.12
2022-09-20T01:54:06.365Z,1.12
2022-09-20T01:56:32.716Z,1.56
2022-09-20T01:59:19.848Z,1.12
2022-09-20T02:01:45.347Z,1.34
2022-09-20T02:04:11.681Z,1.15
2022-09-20T02:06:38.001Z,1.05
2022-09-20T02:09:04.339Z,1.04
2022-09-20T02:11:30.650Z,1.28
2022-09-20T02:13:56.993Z,1.22
2022-09-20T02:16:23.334Z,1.18
2022-09-20T02:18:49.695Z,1.11
2022-09-20T02:21:16.009Z,1.20
2022-09-20T02:23:42.315Z,1.18
2022-09-20T02:26:08.635Z,1.37
2022-09-20T02:28:34.995Z,1.38
2022-09-20T02:31:01.360Z,1.20
2022-09-20T02:33:27.687Z,1.09
2022-09-20T02:35:54.011Z,0.99
2022-09-20T02:38:20.350Z,1.27
2022-09-20T02:40:46.680Z,1.38
2022-09-20T02:43:13.000Z,1.26
2022-09-20T02:45:39.361Z,1.12
2022-09-20T02:48:05.727Z,1.28
2022-09-20T02:50:32.052Z,1.43
2022-09-20T02:52:58.388Z,1.20
2022-09-20T02:55:24.695Z,1.50
2022-09-20T02:57:51.025Z,1.56
2022-09-20T03:00:17.333Z,1.52
2022-09-20T03:02:43.743Z,1.31
2022-09-20T03:05:10.146Z,0.95
2022-09-20T03:07:36.457Z,1.15
2022-09-20T03:10:02.815Z,1.14
2022-09-20T03:12:29.125Z,1.03
2022-09-20T03:14:55.454Z,1.33
2022-09-20T03:17:21.775Z,1.06
2022-09-20T03:19:48.183Z,1.25
2022-09-20T03:22:14.538Z,1.25
2022-09-20T03:24:40.920Z,1.36
2022-09-20T03:27:07.244Z,1.21
2022-09-20T03:29:33.578Z,1.24
2022-09-20T03:31:59.940Z,1.13
2022-09-20T03:34:26.303Z,1.43
2022-09-20T03:36:52.623Z,1.21
2022-09-20T03:39:18.945Z,1.70
2022-09-20T03:41:45.278Z,1.38
2022-09-20T03:44:11.599Z,1.16
2022-09-20T03:46:37.929Z,1.34
2022-09-20T03:49:04.285Z,1.45
2022-09-20T03:51:34.155Z,1.21
2022-09-20T03:54:00.726Z,1.30
2022-09-20T03:56:27.041Z,1.35
2022-09-20T03:58:53.384Z,1.42
2022-09-20T04:01:19.798Z,1.49
2022-09-20T04:03:46.173Z,1.38
2022-09-20T04:06:12.496Z,1.10
2022-09-20T04:08:40.293Z,1.11
2022-09-20T04:11:06.749Z,1.13
2022-09-20T04:13:33.055Z,1.01
2022-09-20T04:15:59.382Z,1.09
2022-09-20T04:18:25.711Z,1.15
2022-09-20T04:20:52.124Z,1.25
2022-09-20T04:23:18.455Z,1.26
2022-09-20T04:25:44.838Z,1.65
2022-09-20T04:28:11.159Z,1.14
2022-09-20T04:30:37.490Z,1.35
2022-09-20T04:33:03.808Z,1.05
2022-09-20T04:35:30.141Z,1.11
2022-09-20T04:37:56.459Z,1.08
2022-09-20T04:40:22.902Z,1.28
2022-09-20T04:42:49.489Z,1.07
2022-09-20T04:45:15.815Z,1.18
2022-09-20T04:47:42.147Z,1.16
2022-09-20T04:50:08.508Z,1.26
2022-09-20T04:52:34.839Z,0.88
2022-09-20T04:55:01.159Z,0.97
2022-09-20T04:57:27.470Z,1.14
2022-09-20T04:59:53.827Z,1.11
2022-09-20T05:02:20.248Z,1.12
2022-09-20T05:04:46.639Z,1.19
2022-09-20T05:07:12.990Z,1.34
2022-09-20T05:09:39.322Z,1.23
2022-09-20T05:12:05.634Z,1.10
2022-09-20T05:17:03.245Z,1.42
2022-09-20T05:19:29.627Z,1.34
2022-09-20T05:21:55.945Z,1.49
2022-09-20T05:24:22.344Z,1.38
2022-09-20T05:26:48.702Z,1.58
2022-09-20T05:29:15.186Z,1.33
2022-09-20T05:31:41.566Z,1.68
2022-09-20T05:34:07.918Z,1.53
2022-09-20T05:36:34.808Z,1.58
2022-09-20T05:39:03.399Z,1.46
2022-09-20T05:41:30.272Z,1.50
2022-09-20T05:43:56.703Z,1.36
2022-09-20T05:46:23.023Z,1.71
2022-09-20T05:48:49.356Z,2.23
2022-09-20T05:51:15.677Z,1.87
2022-09-20T05:53:41.979Z,1.55
2022-09-20T05:56:08.320Z,1.43
2022-09-20T05:58:34.643Z,1.46
2022-09-20T06:01:00.999Z,1.45
2022-09-20T06:03:27.388Z,1.52
2022-09-20T06:05:53.719Z,1.51
2022-09-20T06:08:20.026Z,1.37
2022-09-20T06:10:46.370Z,1.62
2022-09-20T06:13:12.703Z,1.70
2022-09-20T06:15:39.024Z,1.49
2022-09-20T06:18:05.345Z,1.34
2022-09-20T06:20:31.668Z,1.46
2022-09-20T06:22:57.999Z,1.55
2022-09-20T06:25:24.341Z,2.04
2022-09-20T06:27:50.667Z,1.88
2022-09-20T06:30:16.981Z,1.80
2022-09-20T06:32:43.312Z,1.50
2022-09-20T06:35:09.648Z,1.44
2022-09-20T06:37:35.958Z,1.56
2022-09-20T06:40:02.308Z,1.48
2022-09-20T06:42:28.658Z,1.63
2022-09-20T06:44:54.991Z,1.39
2022-09-20T06:47:21.315Z,1.52
2022-09-20T06:49:47.655Z,1.38
2022-09-20T06:52:14.018Z,1.38
2022-09-20T06:54:40.355Z,1.47
2022-09-20T06:57:06.808Z,1.69
2022-09-20T06:59:33.168Z,1.57
2022-09-20T07:01:59.557Z,1.65
2022-09-20T07:04:25.910Z,1.68
2022-09-20T07:06:52.228Z,1.75
2022-09-20T07:09:18.592Z,1.56
2022-09-20T07:11:44.937Z,1.74
2022-09-20T07:14:11.248Z,1.39
2022-09-20T07:16:37.599Z,1.51
2022-09-20T07:19:03.966Z,1.88
2022-09-20T07:21:30.314Z,1.59
2022-09-20T07:23:56.637Z,1.68
2022-09-20T07:26:22.958Z,2.03
2022-09-20T07:28:49.280Z,1.88
2022-09-20T07:31:15.676Z,2.23
2022-09-20T07:33:42.011Z,1.68
2022-09-20T07:36:08.312Z,1.74
2022-09-20T07:38:34.625Z,1.80
2022-09-20T07:41:00.945Z,1.86
2022-09-20T07:43:27.286Z,1.66
2022-09-20T07:45:53.662Z,2.18
2022-09-20T07:48:20.010Z,1.77
2022-09-20T07:50:46.367Z,1.73
2022-09-20T07:53:12.699Z,1.74
2022-09-20T07:55:39.011Z,1.72
2022-09-20T07:58:05.349Z,2.10
2022-09-20T08:00:31.898Z,1.96
2022-09-20T08:02:58.224Z,2.03
2022-09-20T08:05:24.554Z,2.06
2022-09-20T08:07:50.869Z,1.81
2022-09-20T08:10:17.201Z,2.10
2022-09-20T08:15:29.830Z,1.97
2022-09-20T08:17:56.153Z,1.56
2022-09-20T08:20:22.486Z,1.75
2022-09-20T08:23:06.431Z,1.70
2022-09-20T08:25:35.140Z,1.95
2022-09-20T08:28:01.494Z,2.16
2022-09-20T08:30:28.008Z,2.31
2022-09-20T08:32:54.379Z,2.27
2022-09-20T08:35:20.703Z,2.19
2022-09-20T08:37:47.006Z,2.76
2022-09-20T08:40:13.383Z,2.87
2022-09-20T08:42:44.426Z,2.74
2022-09-20T08:45:11.384Z,2.67
2022-09-20T08:47:37.754Z,3.06
2022-09-20T08:50:11.530Z,3.16
2022-09-20T08:52:38.109Z,3.01
2022-09-20T08:55:07.484Z,3.36
2022-09-20T08:57:34.240Z,3.01
2022-09-20T09:00:00.561Z,3.49
2022-09-20T09:02:26.956Z,3.54
2022-09-20T09:04:53.278Z,3.38
2022-09-20T09:07:19.608Z,3.35
2022-09-20T09:09:45.925Z,3.70
2022-09-20T09:12:12.259Z,3.53
2022-09-20T09:14:38.587Z,3.75
2022-09-20T09:17:04.968Z,3.57
2022-09-20T09:19:34.477Z,3.70
2022-09-20T09:22:00.892Z,3.26
2022-09-20T09:24:27.230Z,3.30
2022-09-20T09:26:53.563Z,3.67
2022-09-20T09:29:19.909Z,3.74
2022-09-20T09:31:46.382Z,3.43
2022-09-20T09:34:12.774Z,3.97
2022-09-20T09:36:39.106Z,3.67
2022-09-20T09:39:05.445Z,4.26
2022-09-20T09:41:31.798Z,4.08
2022-09-20T09:43:58.123Z,5.01
2022-09-20T09:46:24.537Z,4.69
2022-09-20T09:48:50.932Z,4.35
2022-09-20T09:51:17.275Z,4.21
2022-09-20T09:53:43.615Z,4.42
2022-09-20T09:56:14.030Z,4.61
2022-09-20T09:58:40.707Z,4.13
2022-09-20T10:01:07.097Z,3.95
2022-09-20T10:03:33.425Z,3.96
2022-09-20T10:05:59.779Z,3.92
2022-09-20T10:08:26.113Z,4.12
2022-09-20T10:10:52.477Z,4.44
2022-09-20T10:13:18.790Z,3.94
2022-09-20T10:15:45.146Z,3.66
2022-09-20T10:18:11.465Z,3.76
2022-09-20T10:20:37.786Z,3.81
2022-09-20T10:23:39.489Z,3.77
2022-09-20T10:25:50.442Z,3.78
2022-09-20T10:28:16.770Z,3.46
2022-09-20T10:30:43.212Z,3.90
2022-09-20T10:33:09.596Z,3.89
2022-09-20T10:35:35.933Z,3.56
2022-09-20T10:38:02.285Z,3.35
2022-09-20T10:40:28.652Z,3.42
2022-09-20T10:42:55.048Z,3.69
2022-09-20T10:45:53.345Z,3.61
2022-09-20T10:48:07.680Z,3.81
2022-09-20T10:50:34.001Z,3.55
2022-09-20T10:53:00.316Z,3.61
2022-09-20T10:55:26.641Z,3.28
2022-09-20T10:57:53.198Z,3.30
2022-09-20T11:00:19.530Z,3.11
2022-09-20T11:02:45.855Z,3.32
2022-09-20T11:05:12.186Z,3.13
2022-09-20T11:07:38.515Z,3.23
2022-09-20T11:10:04.855Z,3.33
2022-09-20T11:12:31.183Z,3.11
2022-09-20T11:14:57.514Z,3.27
2022-09-20T11:17:23.849Z,3.18
2022-09-20T11:19:50.173Z,2.95
2022-09-20T11:22:16.497Z,3.07
2022-09-20T11:24:42.827Z,3.26
2022-09-20T11:27:09.159Z,2.91
2022-09-20T11:29:35.543Z,2.87
2022-09-20T11:32:01.975Z,2.65
2022-09-20T11:34:28.344Z,2.81
2022-09-20T11:36:54.693Z,2.99
2022-09-20T11:39:21.026Z,2.86
2022-09-20T11:41:47.345Z,2.80
2022-09-20T11:44:13.667Z,2.83
2022-09-20T11:46:40.003Z,2.88
2022-09-20T11:49:06.336Z,2.70
2022-09-20T11:51:32.716Z,2.88
2022-09-20T11:53:59.042Z,2.75
2022-09-20T11:56:25.366Z,2.49
2022-09-20T11:58:51.686Z,2.47
2022-09-20T12:01:18.022Z,2.72
2022-09-20T12:03:44.354Z,2.79
2022-09-20T12:06:10.679Z,2.70
2022-09-20T12:08:37.010Z,2.41
2022-09-20T12:11:03.338Z,2.63
2022-09-20T12:13:29.670Z,2.56
2022-09-20T12:15:56.073Z,2.38
2022-09-20T12:18:22.481Z,2.29
2022-09-20T12:20:48.838Z,2.36
2022-09-20T12:23:15.211Z,2.56
2022-09-20T12:25:41.541Z,2.44
2022-09-20T12:28:07.850Z,2.26
2022-09-20T12:30:34.179Z,2.19
2022-09-20T12:33:00.503Z,2.37
2022-09-20T12:35:27.047Z,1.82
2022-09-20T12:37:53.405Z,2.15
2022-09-20T12:40:19.762Z,2.11
2022-09-20T12:42:46.106Z,2.34
2022-09-20T12:45:12.439Z,2.19
2022-09-20T12:47:38.760Z,2.29
2022-09-20T12:50:05.067Z,2.07
2022-09-20T12:52:31.450Z,1.94
2022-09-20T12:55:00.944Z,2.05
2022-09-20T12:57:30.249Z,1.84
2022-09-20T12:59:56.636Z,2.04
2022-09-20T13:02:22.996Z,2.21
2022-09-20T13:04:49.418Z,1.97
2022-09-20T13:07:15.750Z,1.91
2022-09-20T13:09:42.093Z,2.19
2022-09-20T13:12:08.421Z,1.73
2022-09-20T13:14:34.764Z,1.83
2022-09-20T13:17:01.086Z,1.85
2022-09-20T13:19:27.428Z,2.07
2022-09-20T13:21:53.755Z,1.83
2022-09-20T13:24:20.090Z,1.73
2022-09-20T13:26:46.421Z,1.57
2022-09-20T13:29:12.755Z,1.44
2022-09-20T13:31:39.130Z,1.52
2022-09-20T13:34:05.550Z,1.83
2022-09-20T13:36:31.970Z,1.49
2022-09-20T13:38:58.356Z,1.59
2022-09-20T13:41:24.661Z,1.55
2022-09-20T13:43:51.045Z,1.65
2022-09-20T13:46:17.449Z,1.74
2022-09-20T13:48:43.908Z,1.58
2022-09-20T13:51:10.237Z,1.81
2022-09-20T13:53:43.769Z,2.22
2022-09-20T13:56:10.101Z,2.37
2022-09-20T13:58:36.417Z,2.37
2022-09-20T14:01:02.832Z,2.41
2022-09-20T14:03:29.203Z,2.95
2022-09-20T14:05:55.602Z,3.32
2022-09-20T14:08:21.948Z,3.72
2022-09-20T14:10:48.273Z,3.83
2022-09-20T14:13:14.609Z,3.71
2022-09-20T14:15:40.949Z,4.31
2022-09-20T14:18:07.282Z,3.64
2022-09-20T14:20:33.598Z,3.72
2022-09-20T14:22:59.924Z,3.78
2022-09-20T14:25:26.268Z,3.27
2022-09-20T14:27:52.670Z,3.12
2022-09-20T14:30:19.006Z,3.02
2022-09-20T14:32:45.336Z,2.76
2022-09-20T14:35:11.660Z,2.81
2022-09-20T14:37:38.054Z,2.93
2022-09-20T14:40:04.425Z,2.80
2022-09-20T14:42:30.787Z,2.56
2022-09-20T14:44:57.109Z,2.81
2022-09-20T14:47:23.455Z,2.26
2022-09-20T14:49:49.781Z,2.42
2022-09-20T14:52:16.105Z,2.64
2022-09-20T14:54:42.443Z,2.66
2022-09-20T14:57:08.767Z,2.29
2022-09-20T14:59:35.083Z,2.60
2022-09-20T15:02:01.419Z,2.42
2022-09-20T15:04:27.752Z,2.49
2022-09-20T15:06:54.077Z,2.66
2022-09-20T15:09:20.398Z,1.87
2022-09-20T15:11:46.728Z,2.43
2022-09-20T15:14:13.028Z,2.61
2022-09-20T15:16:39.437Z,2.64
2022-09-20T15:19:05.888Z,2.86
2022-09-20T15:21:32.301Z,2.59
2022-09-20T15:23:58.640Z,2.42
2022-09-20T15:26:24.972Z,2.62
2022-09-20T15:28:51.297Z,2.08
2022-09-20T15:31:17.642Z,1.98
2022-09-20T15:33:43.986Z,2.02
2022-09-20T15:36:10.327Z,2.56
2022-09-20T15:38:36.647Z,1.98
2022-09-20T15:41:02.967Z,1.92
2022-09-20T15:43:29.280Z,1.78
2022-09-20T15:45:55.693Z,1.75
2022-09-20T15:48:22.055Z,1.96
2022-09-20T15:50:48.378Z,1.93
2022-09-20T15:53:14.711Z,1.96
2022-09-20T15:55:41.034Z,1.74
2022-09-20T15:58:07.364Z,1.59
2022-09-20T16:00:33.676Z,1.65
2022-09-20T16:03:00.009Z,1.62
2022-09-20T16:05:26.331Z,1.83
2022-09-20T16:07:52.664Z,1.63
2022-09-20T16:10:19.032Z,1.56
2022-09-20T16:12:45.407Z,1.54
2022-09-20T16:15:11.716Z,1.71
2022-09-20T16:17:38.044Z,2.00
2022-09-20T16:20:04.352Z,1.97
2022-09-20T16:22:30.684Z,2.23
2022-09-20T16:24:57.022Z,1.86
2022-09-20T16:27:23.334Z,1.88
2022-09-20T16:29:49.660Z,1.74
2022-09-20T16:32:15.970Z,1.72
2022-09-20T16:34:42.320Z,1.64
2022-09-20T16:37:08.659Z,1.69
2022-09-20T16:39:34.991Z,1.60
2022-09-20T16:42:01.337Z,1.60
2022-09-20T16:44:27.654Z,1.44
2022-09-20T16:46:54.033Z,1.45
2022-09-20T16:49:20.456Z,1.64
2022-09-20T16:51:46.824Z,1.80
2022-09-20T16:54:13.304Z,1.51
2022-09-20T16:56:39.719Z,1.49
2022-09-20T16:59:06.097Z,1.20
2022-09-20T17:01:32.408Z,1.34
2022-09-20T17:03:58.862Z,1.49
2022-09-20T17:06:25.198Z,1.57
2022-09-20T17:08:54.524Z,1.57
2022-09-20T17:11:23.190Z,1.52
2022-09-20T17:13:49.600Z,1.75
2022-09-20T17:16:16.027Z,1.58
2022-09-20T17:18:42.350Z,1.20
2022-09-20T17:21:08.714Z,1.47
2022-09-20T17:23:35.117Z,1.70
2022-09-20T17:26:01.584Z,1.78
2022-09-20T17:28:28.038Z,1.43
2022-09-20T17:30:54.421Z,1.73
2022-09-20T17:33:20.883Z,6.85
2022-09-20T17:35:47.309Z,19.27
2022-09-20T17:38:13.747Z,69.13
2022-09-20T17:40:40.285Z,172.87
2022-09-20T17:43:06.719Z,248.46
2022-09-20T17:45:33.168Z,228.05
2022-09-20T17:47:59.633Z,180.39
2022-09-20T17:50:26.113Z,158.73
2022-09-20T17:52:52.470Z,142.53
2022-09-20T17:55:18.911Z,131.37
2022-09-20T17:57:45.303Z,120.57
2022-09-20T18:00:11.697Z,111.12
2022-09-20T18:02:38.049Z,102.33
2022-09-20T18:05:04.370Z,89.70
2022-09-20T18:07:30.739Z,83.72
2022-09-20T18:09:57.171Z,77.69
2022-09-20T18:12:23.557Z,74.43
2022-09-20T18:14:50.039Z,71.54
2022-09-20T18:17:16.372Z,66.00
2022-09-20T18:19:42.729Z,57.72
2022-09-20T18:22:09.045Z,53.18
2022-09-20T18:24:35.373Z,46.55
2022-09-20T18:27:01.763Z,40.18
2022-09-20T18:29:28.155Z,34.73
2022-09-20T18:31:54.660Z,31.57
2022-09-20T18:34:21.031Z,28.75
2022-09-20T18:36:47.377Z,27.16
2022-09-20T18:39:13.703Z,25.19
2022-09-20T18:41:40.017Z,22.57
2022-09-20T18:44:06.480Z,22.39
2022-09-20T18:46:32.846Z,19.54
2022-09-20T18:48:59.230Z,16.98
2022-09-20T18:51:25.568Z,15.69
2022-09-20T18:53:51.912Z,15.04
2022-09-20T18:56:18.245Z,14.09
2022-09-20T18:58:44.597Z,13.29
2022-09-20T19:01:11.095Z,12.05
2022-09-20T19:03:37.506Z,10.82
2022-09-20T19:06:03.898Z,10.31
2022-09-20T19:08:30.228Z,10.36
2022-09-20T19:10:56.594Z,8.80
2022-09-20T19:13:22.986Z,8.51
2022-09-20T19:15:49.393Z,8.86
2022-09-20T19:18:18.354Z,7.86
2022-09-20T19:20:46.847Z,7.30
2022-09-20T19:23:13.309Z,6.96
2022-09-20T19:25:39.657Z,6.73
2022-09-20T19:28:06.098Z,6.44
2022-09-20T19:30:32.427Z,6.23
2022-09-20T19:32:58.760Z,5.82
2022-09-20T19:35:25.128Z,5.66
2022-09-20T19:37:51.498Z,5.14
2022-09-20T19:40:17.869Z,5.05
2022-09-20T19:42:44.289Z,5.07
2022-09-20T19:45:10.764Z,4.86
2022-09-20T19:47:37.120Z,4.50
2022-09-20T19:50:03.438Z,4.77
2022-09-20T19:52:29.861Z,4.47
2022-09-20T19:54:56.215Z,4.42
2022-09-20T19:57:22.548Z,4.00
2022-09-20T19:59:48.933Z,4.11
2022-09-20T20:02:15.263Z,4.16
2022-09-20T20:04:41.808Z,4.62
2022-09-20T20:07:08.240Z,5.05
2022-09-20T20:09:34.583Z,4.75
2022-09-20T20:12:00.911Z,4.83
2022-09-20T20:14:27.330Z,4.72
2022-09-20T20:16:53.654Z,4.31
2022-09-20T20:19:19.999Z,4.09
2022-09-20T20:21:46.316Z,4.20
2022-09-20T20:24:12.646Z,4.62
2022-09-20T20:26:38.995Z,3.89
2022-09-20T20:29:05.331Z,4.17
2022-09-20T20:31:31.662Z,3.82
2022-09-20T20:33:58.127Z,3.50
2022-09-20T20:36:24.560Z,3.53
2022-09-20T20:38:50.890Z,3.48
2022-09-20T20:41:17.189Z,3.39
2022-09-20T20:43:43.549Z,3.22
2022-09-20T20:46:09.910Z,3.33
2022-09-20T20:48:36.346Z,3.00
2022-09-20T20:51:02.689Z,3.01
2022-09-20T20:53:29.295Z,3.05
2022-09-20T20:55:55.629Z,3.02
2022-09-20T20:58:22.149Z,3.12
2022-09-20T21:00:48.474Z,3.03
2022-09-20T21:03:14.809Z,2.73
2022-09-20T21:05:41.166Z,2.72
2022-09-20T21:08:07.540Z,2.75
2022-09-20T21:10:33.852Z,2.56
2022-09-20T21:13:00.183Z,2.40
2022-09-20T21:15:26.543Z,2.14
2022-09-20T21:17:54.019Z,2.46
2022-09-20T21:20:20.348Z,2.30
2022-09-20T21:22:46.665Z,2.33
2022-09-20T21:25:12.982Z,2.57
2022-09-20T21:27:39.303Z,2.22
2022-09-20T21:30:05.761Z,2.26
2022-09-20T21:32:32.220Z,2.07
2022-09-20T21:34:58.570Z,2.19
2022-09-20T21:37:25.050Z,2.13
2022-09-20T21:39:51.426Z,2.31
2022-09-20T21:42:17.839Z,2.44
2022-09-20T21:44:44.181Z,2.33
2022-09-20T21:47:10.500Z,2.31
2022-09-20T21:49:36.800Z,2.53
2022-09-20T21:52:03.136Z,1.95
2022-09-20T21:54:29.473Z,1.98
2022-09-20T21:56:55.831Z,2.17
2022-09-20T21:59:22.147Z,2.16
2022-09-20T22:01:48.517Z,2.26
2022-09-20T22:04:15.311Z,2.23
2022-09-20T22:06:41.643Z,1.89
2022-09-20T22:09:07.972Z,2.11
2022-09-20T22:11:34.330Z,1.97
2022-09-20T22:14:00.648Z,1.92
2022-09-20T22:16:26.957Z,1.95
2022-09-20T22:18:53.271Z,2.04
2022-09-20T22:21:19.615Z,2.14
2022-09-20T22:23:45.944Z,1.80
2022-09-20T22:26:12.262Z,2.07
2022-09-20T22:28:38.585Z,2.24
2022-09-20T22:31:04.930Z,2.23
2022-09-20T22:33:31.259Z,1.94
2022-09-20T22:35:57.593Z,1.92
2022-09-20T22:38:23.901Z,1.73
2022-09-20T22:40:50.231Z,1.91
2022-09-20T22:43:16.548Z,1.82
2022-09-20T22:45:42.905Z,1.89
2022-09-20T22:48:09.252Z,1.92
2022-09-20T22:50:35.578Z,1.88
2022-09-20T22:53:01.892Z,1.77
2022-09-20T22:55:28.213Z,1.85
2022-09-20T22:57:54.546Z,1.80
2022-09-20T23:00:20.964Z,1.71
2022-09-20T23:02:47.283Z,1.80
2022-09-20T23:05:13.613Z,1.82
2022-09-20T23:07:39.949Z,1.76
2022-09-20T23:10:06.331Z,1.73
2022-09-20T23:12:32.677Z,1.84
2022-09-20T23:14:59.000Z,1.63
2022-09-20T23:17:25.345Z,1.69
2022-09-20T23:19:51.690Z,1.63
2022-09-20T23:22:18.008Z,1.60
2022-09-20T23:24:44.336Z,1.62
2022-09-20T23:27:10.659Z,1.74
2022-09-20T23:29:36.965Z,1.61
2022-09-20T23:32:03.320Z,1.88
2022-09-20T23:34:29.652Z,2.04
2022-09-20T23:36:55.990Z,1.55
2022-09-20T23:39:22.316Z,1.70
2022-09-20T23:41:51.089Z,1.62
2022-09-20T23:44:17.789Z,1.64
2022-09-20T23:46:44.122Z,1.63
2022-09-20T23:49:10.458Z,1.58
2022-09-20T23:51:36.790Z,1.85
2022-09-20T23:54:03.144Z,1.50
2022-09-20T23:56:29.475Z,1.46
2022-09-20T23:58:55.826Z,1.77
